sensor_id;sensor_type;location;lat;lon;timestamp;P1;durP1;ratioP1;P2;durP2;ratioP2
27857;SDS011;16852;51.446;6.528;2022-10-17T00:00:06;4.68;;;2.45;;
27857;SDS011;16852;51.446;6.528;2022-10-17T00:02:07;2.60;;;2.40;;
27857;SDS011;16852;51.446;6.528;2022-10-17T00:04:07;6.13;;;2.55;;
27857;SDS011;16852;51.446;6.528;2022-10-17T00:06:09;3.15;;;2.17;;
27857;SDS011;16852;51.446;6.528;2022-10-17T00:08:13;4.10;;;2.50;;
27857;SDS011;16852;51.446;6.528;2022-10-17T00:10:14;4.88;;;2.70;;
27857;SDS011;16852;51.446;6.528;2022-10-17T00:12:15;4.32;;;2.50;;
27857;SDS011;16852;51.446;6.528;2022-10-17T00:14:16;3.55;;;2.90;;
27857;SDS011;16852;51.446;6.528;2022-10-17T00:16:23;3.80;;;2.83;;
27857;SDS011;16852;51.446;6.528;2022-10-17T00:18:26;5.55;;;2.60;;
27857;SDS011;16852;51.446;6.528;2022-10-17T00:20:26;3.55;;;2.65;;
27857;SDS011;16852;51.446;6.528;2022-10-17T00:24:30;6.80;;;3.05;;
27857;SDS011;16852;51.446;6.528;2022-10-17T00:26:30;3.70;;;2.92;;
27857;SDS011;16852;51.446;6.528;2022-10-17T00:28:31;4.70;;;2.67;;
27857;SDS011;16852;51.446;6.528;2022-10-17T00:30:32;4.35;;;2.85;;
27857;SDS011;16852;51.446;6.528;2022-10-17T00:32:33;5.57;;;3.03;;
27857;SDS011;16852;51.446;6.528;2022-10-17T00:34:33;4.65;;;2.90;;
27857;SDS011;16852;51.446;6.528;2022-10-17T00:36:34;3.58;;;2.92;;
27857;SDS011;16852;51.446;6.528;2022-10-17T00:38:35;3.30;;;2.70;;
27857;SDS011;16852;51.446;6.528;2022-10-17T00:40:36;4.03;;;3.15;;
27857;SDS011;16852;51.446;6.528;2022-10-17T00:42:36;5.07;;;2.97;;
27857;SDS011;16852;51.446;6.528;2022-10-17T00:46:40;4.10;;;3.15;;
27857;SDS011;16852;51.446;6.528;2022-10-17T00:48:41;5.80;;;3.50;;
27857;SDS011;16852;51.446;6.528;2022-10-17T00:50:43;4.95;;;3.25;;
27857;SDS011;16852;51.446;6.528;2022-10-17T00:52:47;4.55;;;2.97;;
27857;SDS011;16852;51.446;6.528;2022-10-17T00:54:50;8.93;;;3.75;;
27857;SDS011;16852;51.446;6.528;2022-10-17T00:56:55;4.70;;;3.13;;
27857;SDS011;16852;51.446;6.528;2022-10-17T00:58:56;3.88;;;2.97;;
27857;SDS011;16852;51.446;6.528;2022-10-17T01:00:57;4.10;;;3.38;;
27857;SDS011;16852;51.446;6.528;2022-10-17T01:02:57;6.20;;;3.40;;
27857;SDS011;16852;51.446;6.528;2022-10-17T01:04:58;4.63;;;3.28;;
27857;SDS011;16852;51.446;6.528;2022-10-17T01:06:59;4.13;;;3.13;;
27857;SDS011;16852;51.446;6.528;2022-10-17T01:08:59;4.45;;;3.50;;
27857;SDS011;16852;51.446;6.528;2022-10-17T01:13:45;5.18;;;3.38;;
27857;SDS011;16852;51.446;6.528;2022-10-17T01:15:57;5.82;;;2.78;;
27857;SDS011;16852;51.446;6.528;2022-10-17T01:25:41;5.97;;;3.38;;
27857;SDS011;16852;51.446;6.528;2022-10-17T01:27:59;3.25;;;2.95;;
27857;SDS011;16852;51.446;6.528;2022-10-17T01:40:07;4.25;;;3.25;;
27857;SDS011;16852;51.446;6.528;2022-10-17T01:47:13;4.68;;;3.25;;
27857;SDS011;16852;51.446;6.528;2022-10-17T01:49:19;3.90;;;2.97;;
27857;SDS011;16852;51.446;6.528;2022-10-17T01:51:25;6.28;;;2.97;;
27857;SDS011;16852;51.446;6.528;2022-10-17T01:53:33;4.80;;;3.47;;
27857;SDS011;16852;51.446;6.528;2022-10-17T01:55:38;4.55;;;3.55;;
27857;SDS011;16852;51.446;6.528;2022-10-17T01:57:45;5.15;;;3.50;;
27857;SDS011;16852;51.446;6.528;2022-10-17T01:59:50;8.70;;;3.75;;
27857;SDS011;16852;51.446;6.528;2022-10-17T02:01:54;5.15;;;4.03;;
27857;SDS011;16852;51.446;6.528;2022-10-17T02:03:57;6.13;;;3.45;;
27857;SDS011;16852;51.446;6.528;2022-10-17T02:05:59;8.35;;;3.50;;
27857;SDS011;16852;51.446;6.528;2022-10-17T02:08:00;6.28;;;3.67;;
27857;SDS011;16852;51.446;6.528;2022-10-17T02:10:02;4.50;;;3.50;;
27857;SDS011;16852;51.446;6.528;2022-10-17T02:19:54;4.18;;;3.10;;
27857;SDS011;16852;51.446;6.528;2022-10-17T02:22:04;6.07;;;4.07;;
27857;SDS011;16852;51.446;6.528;2022-10-17T02:24:35;5.95;;;3.38;;
27857;SDS011;16852;51.446;6.528;2022-10-17T02:26:52;5.75;;;3.53;;
27857;SDS011;16852;51.446;6.528;2022-10-17T02:29:06;4.47;;;3.25;;
27857;SDS011;16852;51.446;6.528;2022-10-17T02:31:21;6.10;;;3.35;;
27857;SDS011;16852;51.446;6.528;2022-10-17T02:33:30;4.72;;;3.40;;
27857;SDS011;16852;51.446;6.528;2022-10-17T02:35:37;4.75;;;3.05;;
27857;SDS011;16852;51.446;6.528;2022-10-17T02:37:42;7.70;;;4.03;;
27857;SDS011;16852;51.446;6.528;2022-10-17T02:39:44;3.80;;;3.10;;
27857;SDS011;16852;51.446;6.528;2022-10-17T02:41:47;5.03;;;3.20;;
27857;SDS011;16852;51.446;6.528;2022-10-17T02:43:50;4.32;;;2.97;;
27857;SDS011;16852;51.446;6.528;2022-10-17T02:45:52;5.70;;;3.60;;
27857;SDS011;16852;51.446;6.528;2022-10-17T02:48:13;4.57;;;3.05;;
27857;SDS011;16852;51.446;6.528;2022-10-17T02:50:48;4.25;;;3.22;;
27857;SDS011;16852;51.446;6.528;2022-10-17T02:53:05;7.95;;;3.83;;
27857;SDS011;16852;51.446;6.528;2022-10-17T02:59:37;8.70;;;3.67;;
27857;SDS011;16852;51.446;6.528;2022-10-17T03:01:40;5.00;;;3.40;;
27857;SDS011;16852;51.446;6.528;2022-10-17T03:03:41;5.13;;;3.85;;
27857;SDS011;16852;51.446;6.528;2022-10-17T03:05:42;7.43;;;3.85;;
27857;SDS011;16852;51.446;6.528;2022-10-17T03:07:42;6.72;;;3.65;;
27857;SDS011;16852;51.446;6.528;2022-10-17T03:09:43;4.00;;;3.40;;
27857;SDS011;16852;51.446;6.528;2022-10-17T03:11:43;4.47;;;3.45;;
27857;SDS011;16852;51.446;6.528;2022-10-17T03:13:44;4.93;;;3.85;;
27857;SDS011;16852;51.446;6.528;2022-10-17T03:15:44;8.40;;;3.35;;
27857;SDS011;16852;51.446;6.528;2022-10-17T03:17:45;5.47;;;3.55;;
27857;SDS011;16852;51.446;6.528;2022-10-17T03:19:46;4.80;;;3.60;;
27857;SDS011;16852;51.446;6.528;2022-10-17T03:21:46;6.53;;;3.92;;
27857;SDS011;16852;51.446;6.528;2022-10-17T03:23:47;4.63;;;3.53;;
27857;SDS011;16852;51.446;6.528;2022-10-17T03:25:47;4.68;;;3.53;;
27857;SDS011;16852;51.446;6.528;2022-10-17T03:27:48;3.70;;;3.28;;
27857;SDS011;16852;51.446;6.528;2022-10-17T03:29:49;3.88;;;3.30;;
27857;SDS011;16852;51.446;6.528;2022-10-17T03:31:49;4.72;;;3.28;;
27857;SDS011;16852;51.446;6.528;2022-10-17T03:33:50;6.22;;;3.47;;
27857;SDS011;16852;51.446;6.528;2022-10-17T03:35:50;7.30;;;3.50;;
27857;SDS011;16852;51.446;6.528;2022-10-17T03:37:51;4.63;;;3.70;;
27857;SDS011;16852;51.446;6.528;2022-10-17T03:39:54;7.38;;;3.97;;
27857;SDS011;16852;51.446;6.528;2022-10-17T03:41:54;5.55;;;3.80;;
27857;SDS011;16852;51.446;6.528;2022-10-17T03:43:55;3.88;;;3.08;;
27857;SDS011;16852;51.446;6.528;2022-10-17T03:45:56;4.40;;;3.42;;
27857;SDS011;16852;51.446;6.528;2022-10-17T03:47:58;7.68;;;3.55;;
27857;SDS011;16852;51.446;6.528;2022-10-17T03:49:59;5.38;;;3.38;;
27857;SDS011;16852;51.446;6.528;2022-10-17T03:51:59;5.32;;;3.60;;
27857;SDS011;16852;51.446;6.528;2022-10-17T03:54:00;4.60;;;3.00;;
27857;SDS011;16852;51.446;6.528;2022-10-17T03:58:30;6.90;;;3.03;;
27857;SDS011;16852;51.446;6.528;2022-10-17T04:00:31;5.47;;;3.30;;
27857;SDS011;16852;51.446;6.528;2022-10-17T04:02:31;5.72;;;3.40;;
27857;SDS011;16852;51.446;6.528;2022-10-17T04:04:34;4.45;;;3.35;;
27857;SDS011;16852;51.446;6.528;2022-10-17T04:06:35;9.30;;;3.60;;
27857;SDS011;16852;51.446;6.528;2022-10-17T04:08:37;4.22;;;3.47;;
27857;SDS011;16852;51.446;6.528;2022-10-17T04:10:37;4.65;;;3.30;;
27857;SDS011;16852;51.446;6.528;2022-10-17T04:12:38;5.47;;;3.35;;
27857;SDS011;16852;51.446;6.528;2022-10-17T04:14:39;4.22;;;3.40;;
27857;SDS011;16852;51.446;6.528;2022-10-17T04:16:39;4.22;;;3.30;;
27857;SDS011;16852;51.446;6.528;2022-10-17T04:18:40;5.85;;;3.30;;
27857;SDS011;16852;51.446;6.528;2022-10-17T04:20:41;4.93;;;3.38;;
27857;SDS011;16852;51.446;6.528;2022-10-17T04:22:42;4.22;;;3.50;;
27857;SDS011;16852;51.446;6.528;2022-10-17T04:24:42;6.55;;;3.78;;
27857;SDS011;16852;51.446;6.528;2022-10-17T04:26:43;4.55;;;3.50;;
27857;SDS011;16852;51.446;6.528;2022-10-17T04:28:44;4.05;;;3.65;;
27857;SDS011;16852;51.446;6.528;2022-10-17T04:30:45;7.05;;;3.88;;
27857;SDS011;16852;51.446;6.528;2022-10-17T04:32:45;4.97;;;3.13;;
27857;SDS011;16852;51.446;6.528;2022-10-17T04:34:49;4.50;;;3.38;;
27857;SDS011;16852;51.446;6.528;2022-10-17T04:36:50;5.60;;;3.55;;
27857;SDS011;16852;51.446;6.528;2022-10-17T04:38:51;5.68;;;3.45;;
27857;SDS011;16852;51.446;6.528;2022-10-17T04:40:52;5.25;;;3.45;;
27857;SDS011;16852;51.446;6.528;2022-10-17T04:42:52;5.68;;;3.42;;
27857;SDS011;16852;51.446;6.528;2022-10-17T04:44:53;8.88;;;3.92;;
27857;SDS011;16852;51.446;6.528;2022-10-17T04:46:53;5.05;;;3.40;;
27857;SDS011;16852;51.446;6.528;2022-10-17T04:48:54;4.88;;;3.80;;
27857;SDS011;16852;51.446;6.528;2022-10-17T04:50:55;5.88;;;3.65;;
27857;SDS011;16852;51.446;6.528;2022-10-17T04:53:00;4.15;;;3.17;;
27857;SDS011;16852;51.446;6.528;2022-10-17T04:55:01;5.22;;;3.50;;
27857;SDS011;16852;51.446;6.528;2022-10-17T04:57:03;5.90;;;3.75;;
27857;SDS011;16852;51.446;6.528;2022-10-17T04:59:04;7.25;;;3.05;;
27857;SDS011;16852;51.446;6.528;2022-10-17T05:01:05;4.45;;;3.20;;
27857;SDS011;16852;51.446;6.528;2022-10-17T05:03:07;4.95;;;3.92;;
27857;SDS011;16852;51.446;6.528;2022-10-17T05:05:08;4.32;;;3.05;;
27857;SDS011;16852;51.446;6.528;2022-10-17T05:07:09;6.30;;;3.55;;
27857;SDS011;16852;51.446;6.528;2022-10-17T05:09:09;4.60;;;3.55;;
27857;SDS011;16852;51.446;6.528;2022-10-17T05:11:20;4.57;;;3.25;;
27857;SDS011;16852;51.446;6.528;2022-10-17T05:13:23;6.10;;;3.40;;
27857;SDS011;16852;51.446;6.528;2022-10-17T05:15:23;3.70;;;3.20;;
27857;SDS011;16852;51.446;6.528;2022-10-17T05:17:24;5.35;;;3.30;;
27857;SDS011;16852;51.446;6.528;2022-10-17T05:19:24;3.22;;;2.92;;
27857;SDS011;16852;51.446;6.528;2022-10-17T05:21:25;5.47;;;3.28;;
27857;SDS011;16852;51.446;6.528;2022-10-17T05:25:28;6.10;;;3.10;;
27857;SDS011;16852;51.446;6.528;2022-10-17T05:27:29;3.63;;;3.00;;
27857;SDS011;16852;51.446;6.528;2022-10-17T05:29:30;5.00;;;3.60;;
27857;SDS011;16852;51.446;6.528;2022-10-17T05:31:30;6.32;;;3.13;;
27857;SDS011;16852;51.446;6.528;2022-10-17T05:33:31;3.70;;;3.20;;
27857;SDS011;16852;51.446;6.528;2022-10-17T05:35:32;4.75;;;3.10;;
27857;SDS011;16852;51.446;6.528;2022-10-17T05:37:33;5.80;;;3.20;;
27857;SDS011;16852;51.446;6.528;2022-10-17T05:39:34;5.72;;;3.47;;
27857;SDS011;16852;51.446;6.528;2022-10-17T05:41:34;5.20;;;3.30;;
27857;SDS011;16852;51.446;6.528;2022-10-17T05:43:35;4.95;;;3.45;;
27857;SDS011;16852;51.446;6.528;2022-10-17T05:45:35;9.85;;;3.63;;
27857;SDS011;16852;51.446;6.528;2022-10-17T05:47:36;5.10;;;3.10;;
27857;SDS011;16852;51.446;6.528;2022-10-17T05:49:36;4.97;;;3.42;;
27857;SDS011;16852;51.446;6.528;2022-10-17T05:51:37;3.40;;;2.72;;
27857;SDS011;16852;51.446;6.528;2022-10-17T05:53:38;7.63;;;4.05;;
27857;SDS011;16852;51.446;6.528;2022-10-17T05:55:40;7.68;;;3.90;;
27857;SDS011;16852;51.446;6.528;2022-10-17T05:57:41;4.25;;;3.58;;
27857;SDS011;16852;51.446;6.528;2022-10-17T05:59:41;5.03;;;3.60;;
27857;SDS011;16852;51.446;6.528;2022-10-17T06:01:42;8.93;;;3.63;;
27857;SDS011;16852;51.446;6.528;2022-10-17T06:03:42;6.35;;;3.78;;
27857;SDS011;16852;51.446;6.528;2022-10-17T06:05:43;5.40;;;3.00;;
27857;SDS011;16852;51.446;6.528;2022-10-17T06:07:44;5.72;;;3.50;;
27857;SDS011;16852;51.446;6.528;2022-10-17T06:09:44;4.63;;;3.55;;
27857;SDS011;16852;51.446;6.528;2022-10-17T06:11:45;4.32;;;3.03;;
27857;SDS011;16852;51.446;6.528;2022-10-17T06:13:45;6.53;;;3.45;;
27857;SDS011;16852;51.446;6.528;2022-10-17T06:15:46;6.22;;;3.35;;
27857;SDS011;16852;51.446;6.528;2022-10-17T06:17:46;8.30;;;4.03;;
27857;SDS011;16852;51.446;6.528;2022-10-17T06:19:47;5.30;;;3.38;;
27857;SDS011;16852;51.446;6.528;2022-10-17T06:21:48;7.55;;;4.03;;
27857;SDS011;16852;51.446;6.528;2022-10-17T06:23:48;5.25;;;3.33;;
27857;SDS011;16852;51.446;6.528;2022-10-17T06:25:49;3.95;;;3.22;;
27857;SDS011;16852;51.446;6.528;2022-10-17T06:27:50;6.15;;;3.75;;
27857;SDS011;16852;51.446;6.528;2022-10-17T06:29:50;7.30;;;4.22;;
27857;SDS011;16852;51.446;6.528;2022-10-17T06:31:51;4.90;;;3.15;;
27857;SDS011;16852;51.446;6.528;2022-10-17T06:33:52;7.43;;;3.70;;
27857;SDS011;16852;51.446;6.528;2022-10-17T06:35:53;4.68;;;2.90;;
27857;SDS011;16852;51.446;6.528;2022-10-17T06:37:54;7.25;;;4.43;;
27857;SDS011;16852;51.446;6.528;2022-10-17T06:39:55;8.23;;;3.80;;
27857;SDS011;16852;51.446;6.528;2022-10-17T06:41:55;9.02;;;3.78;;
27857;SDS011;16852;51.446;6.528;2022-10-17T06:43:56;7.85;;;3.67;;
27857;SDS011;16852;51.446;6.528;2022-10-17T06:45:57;8.35;;;3.90;;
27857;SDS011;16852;51.446;6.528;2022-10-17T06:47:57;5.57;;;3.63;;
27857;SDS011;16852;51.446;6.528;2022-10-17T06:49:58;5.80;;;3.92;;
27857;SDS011;16852;51.446;6.528;2022-10-17T06:51:59;5.90;;;4.05;;
27857;SDS011;16852;51.446;6.528;2022-10-17T06:53:59;7.38;;;3.80;;
27857;SDS011;16852;51.446;6.528;2022-10-17T06:56:00;8.60;;;4.15;;
27857;SDS011;16852;51.446;6.528;2022-10-17T06:58:03;5.72;;;3.70;;
27857;SDS011;16852;51.446;6.528;2022-10-17T07:00:03;5.50;;;3.47;;
27857;SDS011;16852;51.446;6.528;2022-10-17T07:02:05;6.65;;;4.07;;
27857;SDS011;16852;51.446;6.528;2022-10-17T07:04:06;5.18;;;3.55;;
27857;SDS011;16852;51.446;6.528;2022-10-17T07:06:06;5.57;;;3.17;;
27857;SDS011;16852;51.446;6.528;2022-10-17T07:08:07;6.72;;;4.07;;
27857;SDS011;16852;51.446;6.528;2022-10-17T07:10:08;7.53;;;3.50;;
27857;SDS011;16852;51.446;6.528;2022-10-17T07:12:08;6.68;;;3.50;;
27857;SDS011;16852;51.446;6.528;2022-10-17T07:14:11;5.45;;;3.38;;
27857;SDS011;16852;51.446;6.528;2022-10-17T07:16:12;12.45;;;4.13;;
27857;SDS011;16852;51.446;6.528;2022-10-17T07:18:14;5.78;;;3.45;;
27857;SDS011;16852;51.446;6.528;2022-10-17T07:20:15;5.45;;;3.38;;
27857;SDS011;16852;51.446;6.528;2022-10-17T07:22:15;5.30;;;3.47;;
27857;SDS011;16852;51.446;6.528;2022-10-17T07:24:16;5.03;;;3.65;;
27857;SDS011;16852;51.446;6.528;2022-10-17T07:26:17;5.65;;;3.35;;
27857;SDS011;16852;51.446;6.528;2022-10-17T07:28:18;5.53;;;3.38;;
27857;SDS011;16852;51.446;6.528;2022-10-17T07:30:19;5.10;;;3.55;;
27857;SDS011;16852;51.446;6.528;2022-10-17T07:32:19;5.70;;;4.03;;
27857;SDS011;16852;51.446;6.528;2022-10-17T07:34:20;5.55;;;3.75;;
27857;SDS011;16852;51.446;6.528;2022-10-17T07:36:21;6.03;;;3.70;;
27857;SDS011;16852;51.446;6.528;2022-10-17T07:38:21;4.85;;;3.05;;
27857;SDS011;16852;51.446;6.528;2022-10-17T07:40:22;6.72;;;3.10;;
27857;SDS011;16852;51.446;6.528;2022-10-17T07:42:22;5.43;;;3.00;;
27857;SDS011;16852;51.446;6.528;2022-10-17T07:44:23;5.35;;;3.70;;
27857;SDS011;16852;51.446;6.528;2022-10-17T07:46:24;5.03;;;3.78;;
27857;SDS011;16852;51.446;6.528;2022-10-17T07:48:24;9.63;;;3.50;;
27857;SDS011;16852;51.446;6.528;2022-10-17T07:50:25;5.65;;;3.58;;
27857;SDS011;16852;51.446;6.528;2022-10-17T07:52:26;6.95;;;3.63;;
27857;SDS011;16852;51.446;6.528;2022-10-17T07:54:26;5.07;;;3.40;;
27857;SDS011;16852;51.446;6.528;2022-10-17T07:56:27;6.43;;;3.47;;
27857;SDS011;16852;51.446;6.528;2022-10-17T07:58:28;4.43;;;2.75;;
27857;SDS011;16852;51.446;6.528;2022-10-17T08:00:30;6.43;;;3.30;;
27857;SDS011;16852;51.446;6.528;2022-10-17T08:02:30;6.30;;;3.20;;
27857;SDS011;16852;51.446;6.528;2022-10-17T08:04:31;5.78;;;3.05;;
27857;SDS011;16852;51.446;6.528;2022-10-17T08:06:33;6.75;;;3.10;;
27857;SDS011;16852;51.446;6.528;2022-10-17T08:08:33;4.70;;;2.72;;
27857;SDS011;16852;51.446;6.528;2022-10-17T08:10:34;3.55;;;2.42;;
27857;SDS011;16852;51.446;6.528;2022-10-17T08:12:35;5.05;;;2.85;;
27857;SDS011;16852;51.446;6.528;2022-10-17T08:14:36;7.68;;;3.30;;
27857;SDS011;16852;51.446;6.528;2022-10-17T08:16:38;4.18;;;2.55;;
27857;SDS011;16852;51.446;6.528;2022-10-17T08:18:40;4.03;;;2.65;;
27857;SDS011;16852;51.446;6.528;2022-10-17T08:20:41;6.57;;;2.05;;
27857;SDS011;16852;51.446;6.528;2022-10-17T08:22:42;7.00;;;2.28;;
27857;SDS011;16852;51.446;6.528;2022-10-17T08:24:49;5.07;;;2.60;;
27857;SDS011;16852;51.446;6.528;2022-10-17T08:26:50;7.35;;;2.70;;
27857;SDS011;16852;51.446;6.528;2022-10-17T08:28:52;5.53;;;2.67;;
27857;SDS011;16852;51.446;6.528;2022-10-17T08:30:53;6.85;;;2.50;;
27857;SDS011;16852;51.446;6.528;2022-10-17T08:33:01;4.43;;;2.20;;
27857;SDS011;16852;51.446;6.528;2022-10-17T08:35:02;5.82;;;2.92;;
27857;SDS011;16852;51.446;6.528;2022-10-17T08:37:02;3.42;;;2.35;;
27857;SDS011;16852;51.446;6.528;2022-10-17T08:39:03;5.82;;;2.33;;
27857;SDS011;16852;51.446;6.528;2022-10-17T08:41:14;4.55;;;2.45;;
27857;SDS011;16852;51.446;6.528;2022-10-17T08:45:31;6.35;;;2.50;;
27857;SDS011;16852;51.446;6.528;2022-10-17T08:47:37;3.85;;;2.28;;
27857;SDS011;16852;51.446;6.528;2022-10-17T08:49:51;5.47;;;2.63;;
27857;SDS011;16852;51.446;6.528;2022-10-17T08:52:03;6.57;;;2.70;;
27857;SDS011;16852;51.446;6.528;2022-10-17T08:54:18;4.25;;;2.30;;
27857;SDS011;16852;51.446;6.528;2022-10-17T08:56:24;4.10;;;2.33;;
27857;SDS011;16852;51.446;6.528;2022-10-17T08:58:29;7.13;;;3.15;;
27857;SDS011;16852;51.446;6.528;2022-10-17T09:00:31;4.80;;;2.75;;
27857;SDS011;16852;51.446;6.528;2022-10-17T09:11:45;6.28;;;3.08;;
27857;SDS011;16852;51.446;6.528;2022-10-17T09:18:32;4.90;;;2.63;;
27857;SDS011;16852;51.446;6.528;2022-10-17T09:20:48;5.03;;;2.10;;
27857;SDS011;16852;51.446;6.528;2022-10-17T09:23:12;3.45;;;2.33;;
27857;SDS011;16852;51.446;6.528;2022-10-17T09:25:17;4.90;;;2.40;;
27857;SDS011;16852;51.446;6.528;2022-10-17T09:29:25;5.57;;;2.60;;
27857;SDS011;16852;51.446;6.528;2022-10-17T09:31:29;4.72;;;2.30;;
27857;SDS011;16852;51.446;6.528;2022-10-17T09:33:38;5.25;;;2.60;;
27857;SDS011;16852;51.446;6.528;2022-10-17T09:35:43;4.03;;;2.58;;
27857;SDS011;16852;51.446;6.528;2022-10-17T09:37:45;4.97;;;2.58;;
27857;SDS011;16852;51.446;6.528;2022-10-17T09:39:48;6.45;;;2.88;;
27857;SDS011;16852;51.446;6.528;2022-10-17T09:41:52;3.35;;;2.55;;
27857;SDS011;16852;51.446;6.528;2022-10-17T09:43:55;4.32;;;2.38;;
27857;SDS011;16852;51.446;6.528;2022-10-17T09:48:30;5.05;;;2.28;;
27857;SDS011;16852;51.446;6.528;2022-10-17T09:50:43;3.83;;;2.45;;
27857;SDS011;16852;51.446;6.528;2022-10-17T09:52:45;3.47;;;2.72;;
27857;SDS011;16852;51.446;6.528;2022-10-17T09:54:49;4.38;;;2.40;;
27857;SDS011;16852;51.446;6.528;2022-10-17T09:57:03;4.28;;;2.05;;
27857;SDS011;16852;51.446;6.528;2022-10-17T09:59:05;3.10;;;2.30;;
27857;SDS011;16852;51.446;6.528;2022-10-17T10:01:29;5.45;;;2.72;;
27857;SDS011;16852;51.446;6.528;2022-10-17T10:03:30;5.25;;;2.65;;
27857;SDS011;16852;51.446;6.528;2022-10-17T10:05:31;5.93;;;2.30;;
27857;SDS011;16852;51.446;6.528;2022-10-17T10:07:36;5.60;;;3.00;;
27857;SDS011;16852;51.446;6.528;2022-10-17T10:09:38;6.25;;;2.80;;
27857;SDS011;16852;51.446;6.528;2022-10-17T10:11:48;5.25;;;2.65;;
27857;SDS011;16852;51.446;6.528;2022-10-17T10:13:51;4.50;;;2.53;;
27857;SDS011;16852;51.446;6.528;2022-10-17T10:15:52;3.67;;;2.75;;
27857;SDS011;16852;51.446;6.528;2022-10-17T10:17:52;5.60;;;2.28;;
27857;SDS011;16852;51.446;6.528;2022-10-17T10:19:53;5.40;;;2.60;;
27857;SDS011;16852;51.446;6.528;2022-10-17T10:21:55;4.68;;;2.53;;
27857;SDS011;16852;51.446;6.528;2022-10-17T10:24:11;5.70;;;2.65;;
27857;SDS011;16852;51.446;6.528;2022-10-17T10:26:22;4.28;;;2.45;;
27857;SDS011;16852;51.446;6.528;2022-10-17T10:28:26;7.68;;;2.90;;
27857;SDS011;16852;51.446;6.528;2022-10-17T10:30:31;5.63;;;2.67;;
27857;SDS011;16852;51.446;6.528;2022-10-17T10:32:33;3.72;;;2.45;;
27857;SDS011;16852;51.446;6.528;2022-10-17T10:34:35;4.22;;;2.58;;
27857;SDS011;16852;51.446;6.528;2022-10-17T10:36:43;4.97;;;2.75;;
27857;SDS011;16852;51.446;6.528;2022-10-17T10:38:56;5.53;;;2.33;;
27857;SDS011;16852;51.446;6.528;2022-10-17T10:41:03;4.10;;;2.53;;
27857;SDS011;16852;51.446;6.528;2022-10-17T10:43:15;5.97;;;2.75;;
27857;SDS011;16852;51.446;6.528;2022-10-17T10:45:38;3.88;;;2.70;;
27857;SDS011;16852;51.446;6.528;2022-10-17T10:47:53;3.65;;;2.30;;
27857;SDS011;16852;51.446;6.528;2022-10-17T10:52:43;4.78;;;2.70;;
27857;SDS011;16852;51.446;6.528;2022-10-17T10:54:52;5.70;;;3.10;;
27857;SDS011;16852;51.446;6.528;2022-10-17T10:56:59;4.05;;;2.80;;
27857;SDS011;16852;51.446;6.528;2022-10-17T10:59:07;6.15;;;3.17;;
27857;SDS011;16852;51.446;6.528;2022-10-17T11:01:38;7.30;;;2.30;;
27857;SDS011;16852;51.446;6.528;2022-10-17T11:03:53;2.92;;;2.60;;
27857;SDS011;16852;51.446;6.528;2022-10-17T11:05:59;4.53;;;2.70;;
27857;SDS011;16852;51.446;6.528;2022-10-17T11:14:59;3.75;;;2.40;;
27857;SDS011;16852;51.446;6.528;2022-10-17T11:23:36;3.70;;;2.30;;
27857;SDS011;16852;51.446;6.528;2022-10-17T11:25:51;5.45;;;2.97;;
27857;SDS011;16852;51.446;6.528;2022-10-17T11:27:53;2.95;;;2.38;;
27857;SDS011;16852;51.446;6.528;2022-10-17T11:29:54;6.63;;;2.95;;
27857;SDS011;16852;51.446;6.528;2022-10-17T11:31:55;4.15;;;2.85;;
27857;SDS011;16852;51.446;6.528;2022-10-17T11:34:03;4.55;;;2.85;;
27857;SDS011;16852;51.446;6.528;2022-10-17T11:36:11;6.80;;;3.47;;
27857;SDS011;16852;51.446;6.528;2022-10-17T11:38:17;4.00;;;2.50;;
27857;SDS011;16852;51.446;6.528;2022-10-17T11:42:46;6.43;;;3.35;;
27857;SDS011;16852;51.446;6.528;2022-10-17T11:45:13;4.57;;;2.85;;
27857;SDS011;16852;51.446;6.528;2022-10-17T11:49:44;4.28;;;3.05;;
27857;SDS011;16852;51.446;6.528;2022-10-17T11:51:55;8.07;;;3.47;;
27857;SDS011;16852;51.446;6.528;2022-10-17T11:54:18;6.82;;;3.30;;
27857;SDS011;16852;51.446;6.528;2022-10-17T11:56:40;6.25;;;3.05;;
27857;SDS011;16852;51.446;6.528;2022-10-17T11:59:27;5.60;;;2.92;;
27857;SDS011;16852;51.446;6.528;2022-10-17T12:01:51;6.15;;;3.13;;
27857;SDS011;16852;51.446;6.528;2022-10-17T12:15:32;9.95;;;4.80;;
27857;SDS011;16852;51.446;6.528;2022-10-17T12:17:34;12.88;;;5.65;;
27857;SDS011;16852;51.446;6.528;2022-10-17T12:19:38;11.20;;;6.03;;
27857;SDS011;16852;51.446;6.528;2022-10-17T12:24:01;7.90;;;4.78;;
27857;SDS011;16852;51.446;6.528;2022-10-17T12:26:02;11.10;;;5.75;;
27857;SDS011;16852;51.446;6.528;2022-10-17T12:30:14;7.13;;;4.80;;
27857;SDS011;16852;51.446;6.528;2022-10-17T12:32:15;7.25;;;4.38;;
27857;SDS011;16852;51.446;6.528;2022-10-17T12:34:16;10.98;;;4.43;;
27857;SDS011;16852;51.446;6.528;2022-10-17T12:38:22;8.45;;;3.10;;
27857;SDS011;16852;51.446;6.528;2022-10-17T12:42:43;5.60;;;3.25;;
27857;SDS011;16852;51.446;6.528;2022-10-17T12:44:46;5.25;;;3.63;;
27857;SDS011;16852;51.446;6.528;2022-10-17T12:46:48;3.63;;;2.30;;
27857;SDS011;16852;51.446;6.528;2022-10-17T12:48:58;6.60;;;2.95;;
27857;SDS011;16852;51.446;6.528;2022-10-17T12:53:04;9.43;;;3.10;;
27857;SDS011;16852;51.446;6.528;2022-10-17T12:57:24;8.15;;;3.03;;
27857;SDS011;16852;51.446;6.528;2022-10-17T12:59:34;14.43;;;2.75;;
27857;SDS011;16852;51.446;6.528;2022-10-17T13:01:37;6.43;;;2.83;;
27857;SDS011;16852;51.446;6.528;2022-10-17T13:03:42;5.13;;;2.72;;
27857;SDS011;16852;51.446;6.528;2022-10-17T13:05:47;4.32;;;2.22;;
27857;SDS011;16852;51.446;6.528;2022-10-17T13:07:56;9.10;;;2.90;;
27857;SDS011;16852;51.446;6.528;2022-10-17T13:10:00;4.93;;;2.65;;
27857;SDS011;16852;51.446;6.528;2022-10-17T13:12:04;4.40;;;2.55;;
27857;SDS011;16852;51.446;6.528;2022-10-17T13:14:11;4.07;;;2.40;;
27857;SDS011;16852;51.446;6.528;2022-10-17T13:16:27;3.90;;;2.45;;
27857;SDS011;16852;51.446;6.528;2022-10-17T13:18:31;3.42;;;2.47;;
27857;SDS011;16852;51.446;6.528;2022-10-17T13:20:32;5.82;;;2.30;;
27857;SDS011;16852;51.446;6.528;2022-10-17T13:22:33;9.43;;;2.30;;
27857;SDS011;16852;51.446;6.528;2022-10-17T13:24:37;6.75;;;2.45;;
27857;SDS011;16852;51.446;6.528;2022-10-17T13:26:43;7.35;;;2.85;;
27857;SDS011;16852;51.446;6.528;2022-10-17T13:28:45;9.23;;;2.25;;
27857;SDS011;16852;51.446;6.528;2022-10-17T13:31:00;4.90;;;2.47;;
27857;SDS011;16852;51.446;6.528;2022-10-17T13:33:01;5.35;;;2.80;;
27857;SDS011;16852;51.446;6.528;2022-10-17T13:35:06;6.15;;;2.80;;
27857;SDS011;16852;51.446;6.528;2022-10-17T13:37:10;6.15;;;2.47;;
27857;SDS011;16852;51.446;6.528;2022-10-17T13:39:14;6.53;;;2.53;;
27857;SDS011;16852;51.446;6.528;2022-10-17T13:41:19;3.75;;;2.20;;
27857;SDS011;16852;51.446;6.528;2022-10-17T13:43:25;6.60;;;2.90;;
27857;SDS011;16852;51.446;6.528;2022-10-17T13:45:29;8.77;;;2.88;;
27857;SDS011;16852;51.446;6.528;2022-10-17T13:47:36;5.20;;;2.55;;
27857;SDS011;16852;51.446;6.528;2022-10-17T13:51:41;7.65;;;2.45;;
27857;SDS011;16852;51.446;6.528;2022-10-17T13:53:44;8.25;;;2.53;;
27857;SDS011;16852;51.446;6.528;2022-10-17T13:55:55;4.93;;;2.42;;
27857;SDS011;16852;51.446;6.528;2022-10-17T13:58:08;5.63;;;2.30;;
27857;SDS011;16852;51.446;6.528;2022-10-17T14:00:18;4.38;;;2.38;;
27857;SDS011;16852;51.446;6.528;2022-10-17T14:02:22;8.15;;;2.55;;
27857;SDS011;16852;51.446;6.528;2022-10-17T14:04:25;5.32;;;2.38;;
27857;SDS011;16852;51.446;6.528;2022-10-17T14:06:27;7.18;;;2.38;;
27857;SDS011;16852;51.446;6.528;2022-10-17T14:08:29;5.82;;;2.22;;
27857;SDS011;16852;51.446;6.528;2022-10-17T14:10:33;5.13;;;2.30;;
27857;SDS011;16852;51.446;6.528;2022-10-17T14:12:35;7.53;;;2.03;;
27857;SDS011;16852;51.446;6.528;2022-10-17T14:14:36;7.95;;;2.60;;
27857;SDS011;16852;51.446;6.528;2022-10-17T14:16:39;8.52;;;3.05;;
27857;SDS011;16852;51.446;6.528;2022-10-17T14:18:41;6.68;;;2.60;;
27857;SDS011;16852;51.446;6.528;2022-10-17T14:20:46;5.28;;;2.53;;